Time;durP1;ratioP1;P1;durP2;ratioP2;P2;SDS_P1;SDS_P2;PMS_P1;PMS_P2;Temp;Humidity;BMP_temperature;BMP_pressure;BME280_temperature;BME280_humidity;BME280_pressure;Samples;Min_cycle;Max_cycle;Signal;HPM_P1;HPM_P2
2022/07/05 00:00:24;;;;;;;22.83;21.50;;;;;;;;;;5092634;28;20452;-67
2022/07/05 00:02:52;;;;;;;22.70;21.50;;;;;;;;;;5092682;28;20449;-67
2022/07/05 00:05:20;;;;;;;22.30;21.10;;;;;;;;;;5092662;28;20801;-67
2022/07/05 00:07:48;;;;;;;22.20;21.00;;;;;;;;;;5092447;28;20496;-67
2022/07/05 00:10:15;;;;;;;22.43;21.13;;;;;;;;;;5092667;28;20811;-67
2022/07/05 00:12:42;;;;;;;23.43;22.00;;;;;;;;;;5092629;28;20434;-67
2022/07/05 00:15:10;;;;;;;23.23;21.93;;;;;;;;;;5092253;28;20932;-67
2022/07/05 00:17:37;;;;;;;22.40;21.10;;;;;;;;;;5092446;28;20451;-67
2022/07/05 00:20:05;;;;;;;22.87;21.67;;;;;;;;;;5095013;28;20454;-67
2022/07/05 00:22:34;;;;;;;22.77;21.47;;;;;;;;;;5096385;28;20407;-67
2022/07/05 00:25:01;;;;;;;22.50;21.30;;;;;;;;;;5096605;28;20440;-67
2022/07/05 00:27:28;;;;;;;22.63;21.43;;;;;;;;;;5095961;28;20951;-67
2022/07/05 00:29:56;;;;;;;22.97;21.67;;;;;;;;;;5096044;28;20790;-67
2022/07/05 00:32:23;;;;;;;22.63;21.37;;;;;;;;;;5095247;28;20421;-67
2022/07/05 00:34:51;;;;;;;22.67;21.37;;;;;;;;;;5096086;28;20809;-67
2022/07/05 00:37:19;;;;;;;22.77;21.47;;;;;;;;;;5096130;28;20433;-66
2022/07/05 00:39:48;;;;;;;23.30;21.80;;;;;;;;;;5096362;28;20429;-67
2022/07/05 00:42:15;;;;;;;22.90;21.60;;;;;;;;;;5095762;28;20501;-67
2022/07/05 00:44:43;;;;;;;22.50;20.97;;;;;;;;;;5096087;28;20440;-67
2022/07/05 00:47:11;;;;;;;21.97;20.80;;;;;;;;;;5095544;28;20438;-67
2022/07/05 00:49:39;;;;;;;22.17;20.87;;;;;;;;;;5095612;28;20409;-66
2022/07/05 00:52:07;;;;;;;22.83;21.60;;;;;;;;;;5095563;28;20474;-67
2022/07/05 00:54:35;;;;;;;22.63;21.33;;;;;;;;;;5095833;28;20415;-67
2022/07/05 00:57:04;;;;;;;22.40;21.20;;;;;;;;;;5095497;28;20499;-67
2022/07/05 00:59:33;;;;;;;21.73;20.53;;;;;;;;;;5095698;28;20429;-67
2022/07/05 01:02:00;;;;;;;22.40;21.20;;;;;;;;;;5095303;28;20422;-67
2022/07/05 01:04:27;;;;;;;23.17;21.87;;;;;;;;;;5095580;28;20411;-67
2022/07/05 01:06:55;;;;;;;22.20;21.00;;;;;;;;;;5095233;28;20407;-67
2022/07/05 01:09:23;;;;;;;22.40;21.10;;;;;;;;;;5095557;28;20423;-67
2022/07/05 01:11:51;;;;;;;22.67;21.47;;;;;;;;;;5095043;28;20959;-67
2022/07/05 01:14:20;;;;;;;22.43;21.03;;;;;;;;;;5095437;28;20426;-66
2022/07/05 01:16:47;;;;;;;22.17;20.97;;;;;;;;;;5095135;28;20877;-67
2022/07/05 01:19:16;;;;;;;23.03;21.43;;;;;;;;;;5095163;28;20483;-67
2022/07/05 01:21:44;;;;;;;22.43;21.23;;;;;;;;;;5095186;28;20421;-67
2022/07/05 01:24:14;;;;;;;22.37;20.83;;;;;;;;;;5095213;28;20415;-66
2022/07/05 01:26:41;;;;;;;22.73;21.50;;;;;;;;;;5095020;28;20545;-67
2022/07/05 01:29:10;;;;;;;22.73;21.53;;;;;;;;;;5094907;28;20411;-67
2022/07/05 01:31:38;;;;;;;22.73;21.30;;;;;;;;;;5094851;28;20466;-67
2022/07/05 01:34:06;;;;;;;22.10;20.80;;;;;;;;;;5094640;28;20532;-66
2022/07/05 01:36:33;;;;;;;22.00;20.80;;;;;;;;;;5094932;28;20842;-67
2022/07/05 01:39:01;;;;;;;22.60;21.30;;;;;;;;;;5094675;28;20755;-67
2022/07/05 01:41:29;;;;;;;22.30;20.90;;;;;;;;;;5095087;28;20442;-67
2022/07/05 01:43:57;;;;;;;21.73;20.63;;;;;;;;;;5095018;28;20426;-67
2022/07/05 01:46:25;;;;;;;22.50;21.30;;;;;;;;;;5094882;28;20938;-67
2022/07/05 01:48:55;;;;;;;22.87;21.63;;;;;;;;;;5094742;28;20401;-67
2022/07/05 01:51:24;;;;;;;23.17;21.90;;;;;;;;;;5094463;28;20487;-67
2022/07/05 01:53:53;;;;;;;22.20;20.97;;;;;;;;;;5094550;28;20459;-67
2022/07/05 01:56:21;;;;;;;22.10;20.70;;;;;;;;;;5094623;28;20685;-67
2022/07/05 01:58:49;;;;;;;22.07;20.87;;;;;;;;;;5094444;28;20936;-67
2022/07/05 02:01:33;;;;;;;22.13;20.93;;;;;;;;;;5094470;28;20439;-67
2022/07/05 02:04:00;;;;;;;21.90;20.70;;;;;;;;;;5094152;28;20413;-67
2022/07/05 02:06:28;;;;;;;21.63;20.47;;;;;;;;;;5094421;28;20405;-67
2022/07/05 02:08:55;;;;;;;22.23;20.93;;;;;;;;;;5094315;28;20431;-67
2022/07/05 02:11:23;;;;;;;22.23;20.93;;;;;;;;;;5092807;28;20488;-67
2022/07/05 02:13:51;;;;;;;22.03;20.80;;;;;;;;;;5094252;28;20410;-67
2022/07/05 02:16:19;;;;;;;22.47;20.80;;;;;;;;;;5093923;28;20443;-67
2022/07/05 02:18:46;;;;;;;21.33;20.23;;;;;;;;;;5093886;28;20439;-67
2022/07/05 02:21:13;;;;;;;21.77;20.67;;;;;;;;;;5093725;28;20421;-67
2022/07/05 02:23:41;;;;;;;22.47;20.87;;;;;;;;;;5093808;28;20447;-67
2022/07/05 02:26:11;;;;;;;22.50;21.20;;;;;;;;;;5093683;28;20416;-67
2022/07/05 02:28:39;;;;;;;21.33;20.00;;;;;;;;;;5093963;28;20774;-67
2022/07/05 02:31:07;;;;;;;22.17;21.00;;;;;;;;;;5093799;28;20484;-67
2022/07/05 02:33:35;;;;;;;21.87;20.63;;;;;;;;;;5093778;28;20444;-67
2022/07/05 02:36:06;;;;;;;22.47;21.27;;;;;;;;;;5093898;28;20435;-67
2022/07/05 02:38:34;;;;;;;22.13;20.90;;;;;;;;;;5093808;28;20418;-67
2022/07/05 02:41:01;;;;;;;22.10;20.90;;;;;;;;;;5092082;28;20525;-67
2022/07/05 02:43:29;;;;;;;21.90;20.70;;;;;;;;;;5093486;28;20451;-67
2022/07/05 02:45:56;;;;;;;21.77;20.57;;;;;;;;;;5093749;28;20410;-67
2022/07/05 02:48:25;;;;;;;22.60;21.10;;;;;;;;;;5093163;28;20445;-67
2022/07/05 02:50:52;;;;;;;22.17;20.90;;;;;;;;;;5093654;28;20416;-67
2022/07/05 02:53:19;;;;;;;22.20;20.87;;;;;;;;;;5093458;28;20413;-67
2022/07/05 02:55:47;;;;;;;22.37;21.00;;;;;;;;;;5093510;28;20411;-67
2022/07/05 02:58:14;;;;;;;22.07;20.77;;;;;;;;;;5093428;28;20414;-66
2022/07/05 03:00:42;;;;;;;22.17;20.80;;;;;;;;;;5093168;28;20827;-67
2022/07/05 03:03:09;;;;;;;22.50;21.30;;;;;;;;;;5093435;28;20406;-67
2022/07/05 03:05:38;;;;;;;22.70;21.50;;;;;;;;;;5093149;28;20496;-67
2022/07/05 03:08:06;;;;;;;22.20;21.00;;;;;;;;;;5093269;28;20415;-67
2022/07/05 03:10:33;;;;;;;23.47;21.70;;;;;;;;;;5093082;28;20465;-67
2022/07/05 03:13:01;;;;;;;23.23;21.97;;;;;;;;;;5093062;28;20464;-67
2022/07/05 03:15:28;;;;;;;22.60;21.20;;;;;;;;;;5091736;28;20429;-66
2022/07/05 03:17:55;;;;;;;23.37;21.97;;;;;;;;;;5093034;28;20409;-67
2022/07/05 03:20:23;;;;;;;22.80;21.40;;;;;;;;;;5092818;28;20588;-67
2022/07/05 03:22:52;;;;;;;23.37;21.97;;;;;;;;;;5092846;28;20789;-67
2022/07/05 03:25:20;;;;;;;23.13;21.83;;;;;;;;;;5092742;28;20410;-66
2022/07/05 03:27:47;;;;;;;22.50;21.30;;;;;;;;;;5092797;28;20449;-67
2022/07/05 03:30:15;;;;;;;22.97;21.77;;;;;;;;;;5092988;28;20417;-67
2022/07/05 03:32:42;;;;;;;22.67;21.13;;;;;;;;;;5092582;28;20830;-67
2022/07/05 03:35:10;;;;;;;22.90;21.57;;;;;;;;;;5092708;28;20952;-66
2022/07/05 03:37:37;;;;;;;23.60;22.13;;;;;;;;;;5092919;28;20425;-66
2022/07/05 03:40:07;;;;;;;23.10;21.60;;;;;;;;;;5092966;28;20521;-66
2022/07/05 03:42:35;;;;;;;22.67;21.23;;;;;;;;;;5092863;28;20473;-67
2022/07/05 03:45:02;;;;;;;22.60;21.40;;;;;;;;;;5092581;28;20410;-67
2022/07/05 03:47:30;;;;;;;22.37;21.07;;;;;;;;;;5092895;28;20419;-67
2022/07/05 03:49:57;;;;;;;21.90;20.80;;;;;;;;;;5092997;28;20998;-67
2022/07/05 03:52:24;;;;;;;22.23;21.03;;;;;;;;;;5092685;28;20478;-66
2022/07/05 03:54:52;;;;;;;22.67;21.30;;;;;;;;;;5096957;28;20440;-67
2022/07/05 03:57:21;;;;;;;22.20;21.00;;;;;;;;;;5096963;28;20439;-67
2022/07/05 03:59:48;;;;;;;23.03;21.53;;;;;;;;;;5096758;28;20414;-66
2022/07/05 04:02:16;;;;;;;22.90;21.40;;;;;;;;;;5096799;28;20438;-66
2022/07/05 04:04:44;;;;;;;22.53;20.93;;;;;;;;;;5096865;28;20425;-66
2022/07/05 04:07:11;;;;;;;22.17;20.80;;;;;;;;;;5096449;28;20437;-67
2022/07/05 04:09:38;;;;;;;22.50;21.30;;;;;;;;;;5096715;28;20421;-67
2022/07/05 04:12:06;;;;;;;22.43;21.23;;;;;;;;;;5096532;28;20481;-66
2022/07/05 04:14:35;;;;;;;21.93;20.53;;;;;;;;;;5096874;28;20420;-66
2022/07/05 04:17:02;;;;;;;22.30;21.00;;;;;;;;;;5096518;28;20410;-67
2022/07/05 04:19:30;;;;;;;23.47;21.90;;;;;;;;;;5096008;28;20465;-67
2022/07/05 04:21:57;;;;;;;22.30;21.00;;;;;;;;;;5096441;28;20417;-67
2022/07/05 04:24:25;;;;;;;21.87;20.57;;;;;;;;;;5096058;28;20445;-67
2022/07/05 04:26:52;;;;;;;21.63;20.43;;;;;;;;;;5096600;28;20798;-67
2022/07/05 04:29:19;;;;;;;21.20;20.00;;;;;;;;;;5096309;28;20800;-67
2022/07/05 04:31:48;;;;;;;22.77;21.37;;;;;;;;;;5096212;28;20447;-67
2022/07/05 04:34:16;;;;;;;24.87;23.37;;;;;;;;;;5095842;28;20444;-66
2022/07/05 04:36:43;;;;;;;22.80;21.60;;;;;;;;;;5095909;28;20448;-67
2022/07/05 04:39:10;;;;;;;22.60;21.20;;;;;;;;;;5096410;28;20410;-66
2022/07/05 04:41:38;;;;;;;22.20;20.90;;;;;;;;;;5096025;28;20413;-66
2022/07/05 04:44:05;;;;;;;25.40;23.80;;;;;;;;;;5096108;28;20445;-66
2022/07/05 04:46:33;;;;;;;24.67;23.27;;;;;;;;;;5095573;28;20494;-66
2022/07/05 04:49:02;;;;;;;23.90;22.60;;;;;;;;;;5095845;28;20490;-67
2022/07/05 04:51:29;;;;;;;23.70;22.33;;;;;;;;;;5095497;28;20479;-67
2022/07/05 04:53:57;;;;;;;24.30;22.83;;;;;;;;;;5095522;28;20482;-67
2022/07/05 04:56:24;;;;;;;24.30;22.90;;;;;;;;;;5095734;28;20429;-67
2022/07/05 04:58:51;;;;;;;23.53;22.33;;;;;;;;;;5095915;28;20785;-66
2022/07/05 05:01:19;;;;;;;22.83;21.63;;;;;;;;;;5095438;28;20402;-66
2022/07/05 05:03:46;;;;;;;23.73;22.20;;;;;;;;;;5095134;28;20500;-67
2022/07/05 05:06:15;;;;;;;24.37;22.70;;;;;;;;;;5094924;28;20420;-67
2022/07/05 05:08:42;;;;;;;23.33;21.80;;;;;;;;;;5095502;28;20418;-68
2022/07/05 05:11:10;;;;;;;22.60;21.10;;;;;;;;;;5095511;28;20421;-69
2022/07/05 05:13:37;;;;;;;23.27;21.83;;;;;;;;;;5095138;28;20468;-69
2022/07/05 05:16:05;;;;;;;23.67;22.37;;;;;;;;;;5095384;28;20436;-69
2022/07/05 05:18:32;;;;;;;22.87;21.63;;;;;;;;;;5094735;28;20839;-69
2022/07/05 05:20:59;;;;;;;24.23;22.43;;;;;;;;;;5095058;28;20479;-69
2022/07/05 05:23:28;;;;;;;23.10;21.80;;;;;;;;;;5095530;28;20435;-69
2022/07/05 05:25:55;;;;;;;24.57;22.97;;;;;;;;;;5095293;28;20435;-69
2022/07/05 05:28:23;;;;;;;22.50;21.20;;;;;;;;;;5095169;28;20765;-69
2022/07/05 05:30:50;;;;;;;23.10;21.80;;;;;;;;;;5095136;28;20413;-69
2022/07/05 05:33:18;;;;;;;22.70;21.40;;;;;;;;;;5094610;28;20466;-69
2022/07/05 05:35:45;;;;;;;22.40;20.93;;;;;;;;;;5094753;28;20496;-69
2022/07/05 05:38:12;;;;;;;22.67;21.20;;;;;;;;;;5095275;28;20434;-69
2022/07/05 05:40:44;;;;;;;22.50;21.20;;;;;;;;;;5094869;28;20397;-69
2022/07/05 05:43:11;;;;;;;23.57;22.10;;;;;;;;;;5094904;28;20490;-69
2022/07/05 05:45:38;;;;;;;22.60;21.17;;;;;;;;;;5094514;28;20485;-69
2022/07/05 05:48:06;;;;;;;22.67;21.27;;;;;;;;;;5094379;28;20427;-69
2022/07/05 05:50:35;;;;;;;21.87;20.67;;;;;;;;;;5094649;28;20440;-69
2022/07/05 05:53:02;;;;;;;23.40;21.90;;;;;;;;;;5094660;28;20516;-69
2022/07/05 05:55:31;;;;;;;23.13;21.83;;;;;;;;;;5094723;28;20435;-69
2022/07/05 05:58:12;;;;;;;23.33;21.93;;;;;;;;;;5094354;28;20485;-69
2022/07/05 06:00:39;;;;;;;22.50;21.07;;;;;;;;;;5094056;28;20427;-69
2022/07/05 06:03:06;;;;;;;23.07;21.77;;;;;;;;;;5094533;28;20443;-70
2022/07/05 06:05:34;;;;;;;22.50;21.30;;;;;;;;;;5094210;28;20439;-70
2022/07/05 06:08:01;;;;;;;22.83;21.47;;;;;;;;;;5094455;28;20434;-69
2022/07/05 06:10:29;;;;;;;21.80;20.60;;;;;;;;;;5094072;28;20418;-69
2022/07/05 06:12:58;;;;;;;21.87;20.60;;;;;;;;;;5094309;28;20461;-69
2022/07/05 06:15:27;;;;;;;22.13;20.83;;;;;;;;;;5094301;28;20410;-70
2022/07/05 06:17:54;;;;;;;24.37;22.80;;;;;;;;;;5094195;28;20760;-69
2022/07/05 06:20:22;;;;;;;22.57;21.10;;;;;;;;;;5074551;28;20972;-69
2022/07/05 06:22:50;;;;;;;23.27;21.73;;;;;;;;;;5073955;28;20428;-70
2022/07/05 06:25:17;;;;;;;23.30;21.87;;;;;;;;;;5073824;28;20436;-67
2022/07/05 06:27:46;;;;;;;22.87;21.47;;;;;;;;;;5073804;28;20410;-67
2022/07/05 06:30:15;;;;;;;22.70;21.30;;;;;;;;;;5073479;28;20893;-71
2022/07/05 06:32:44;;;;;;;24.07;22.57;;;;;;;;;;5073248;28;20485;-67
2022/07/05 06:35:11;;;;;;;22.80;21.40;;;;;;;;;;5073534;28;20439;-67
2022/07/05 06:37:42;;;;;;;22.63;21.23;;;;;;;;;;5073435;28;20442;-67
2022/07/05 06:40:11;;;;;;;22.60;20.87;;;;;;;;;;5073615;28;20487;-67
2022/07/05 06:42:38;;;;;;;22.07;20.87;;;;;;;;;;5073501;28;20443;-66
2022/07/05 06:45:07;;;;;;;22.67;21.40;;;;;;;;;;5073516;28;20410;-67
2022/07/05 06:47:34;;;;;;;23.17;21.70;;;;;;;;;;5073288;28;20422;-67
2022/07/05 06:50:03;;;;;;;21.70;20.40;;;;;;;;;;5073188;28;20440;-67
2022/07/05 06:52:31;;;;;;;21.50;20.30;;;;;;;;;;5072974;28;20870;-67
2022/07/05 06:54:59;;;;;;;22.73;21.10;;;;;;;;;;5073223;28;20443;-67
2022/07/05 06:57:26;;;;;;;22.90;21.40;;;;;;;;;;5073249;28;20440;-67
2022/07/05 06:59:54;;;;;;;23.63;22.13;;;;;;;;;;5072743;28;20448;-67
2022/07/05 07:02:22;;;;;;;22.53;21.23;;;;;;;;;;5073021;28;20486;-67
2022/07/05 07:04:49;;;;;;;23.20;21.60;;;;;;;;;;5072617;28;20443;-67
2022/07/05 07:10:04;;;;;;;22.53;21.23;;;;;;;;;;5072925;28;20436;-67
2022/07/05 07:12:31;;;;;;;23.17;21.87;;;;;;;;;;5072570;28;20488;-67
2022/07/05 07:14:59;;;;;;;23.37;21.97;;;;;;;;;;5073055;28;20562;-67
2022/07/05 07:17:26;;;;;;;22.97;21.53;;;;;;;;;;5072922;28;20430;-67
2022/07/05 07:19:53;;;;;;;22.43;21.13;;;;;;;;;;5072639;28;20470;-67
2022/07/05 07:22:22;;;;;;;22.90;21.60;;;;;;;;;;5073148;28;20452;-67
2022/07/05 07:24:49;;;;;;;22.83;21.33;;;;;;;;;;5072628;28;20930;-67
2022/07/05 07:27:17;;;;;;;23.13;21.73;;;;;;;;;;5072403;28;20954;-67
2022/07/05 07:29:44;;;;;;;22.87;21.57;;;;;;;;;;5072527;28;20441;-67
2022/07/05 07:32:12;;;;;;;23.83;22.50;;;;;;;;;;5072740;28;20455;-67
2022/07/05 07:34:39;;;;;;;24.07;22.70;;;;;;;;;;5072483;28;20854;-67
2022/07/05 07:37:08;;;;;;;23.83;22.40;;;;;;;;;;5072527;28;20777;-67
2022/07/05 07:39:37;;;;;;;25.53;23.87;;;;;;;;;;5072741;28;20532;-67
2022/07/05 07:42:05;;;;;;;24.20;22.60;;;;;;;;;;5072773;28;20407;-67
2022/07/05 07:44:32;;;;;;;22.60;20.97;;;;;;;;;;5072422;28;20837;-67
2022/07/05 07:46:59;;;;;;;22.73;21.43;;;;;;;;;;5072673;28;20465;-67
2022/07/05 07:49:27;;;;;;;24.57;23.17;;;;;;;;;;5072558;28;20502;-67
2022/07/05 07:51:54;;;;;;;23.37;22.07;;;;;;;;;;5072715;28;20514;-67
2022/07/05 07:54:21;;;;;;;23.53;22.23;;;;;;;;;;5072581;28;20451;-67
2022/07/05 07:56:50;;;;;;;24.20;22.83;;;;;;;;;;5072304;28;20876;-67
2022/07/05 07:59:17;;;;;;;24.80;23.30;;;;;;;;;;5072492;28;20415;-71
2022/07/05 08:01:45;;;;;;;23.40;22.10;;;;;;;;;;5072481;28;20806;-68
2022/07/05 08:04:12;;;;;;;24.23;22.70;;;;;;;;;;5072656;28;20785;-67
2022/07/05 08:06:40;;;;;;;23.83;22.30;;;;;;;;;;5072485;28;20433;-67
2022/07/05 08:09:07;;;;;;;23.80;22.40;;;;;;;;;;5072135;28;21170;-67
2022/07/05 08:11:34;;;;;;;23.23;21.93;;;;;;;;;;5072421;28;20783;-68
2022/07/05 08:14:03;;;;;;;23.03;21.73;;;;;;;;;;5072398;28;20483;-67
2022/07/05 08:16:30;;;;;;;23.83;22.43;;;;;;;;;;5072137;28;20739;-68
2022/07/05 08:21:42;;;;;;;23.43;22.13;;;;;;;;;;5072304;28;20886;-67
2022/07/05 08:24:11;;;;;;;23.70;22.40;;;;;;;;;;5072334;28;20464;-67
2022/07/05 08:26:38;;;;;;;23.23;21.93;;;;;;;;;;5072368;28;20414;-66
2022/07/05 08:29:08;;;;;;;24.40;23.00;;;;;;;;;;5071904;28;20801;-67
2022/07/05 08:31:36;;;;;;;23.00;21.60;;;;;;;;;;5072341;28;20420;-67
2022/07/05 08:34:03;;;;;;;23.00;21.70;;;;;;;;;;5072170;28;20474;-67
2022/07/05 08:36:31;;;;;;;24.60;23.00;;;;;;;;;;5072181;28;20415;-68
2022/07/05 08:38:58;;;;;;;24.87;23.27;;;;;;;;;;5072207;28;20440;-68
2022/07/05 08:41:26;;;;;;;23.73;22.33;;;;;;;;;;5075127;28;20436;-67
2022/07/05 08:43:53;;;;;;;24.47;23.07;;;;;;;;;;5075936;28;20445;-67
2022/07/05 08:46:22;;;;;;;24.67;23.17;;;;;;;;;;5075768;28;20467;-67
2022/07/05 08:48:50;;;;;;;24.27;22.77;;;;;;;;;;5075318;28;20901;-67
2022/07/05 08:51:18;;;;;;;24.00;22.70;;;;;;;;;;5075736;28;20431;-67
2022/07/05 08:53:46;;;;;;;23.60;22.20;;;;;;;;;;5075180;28;20567;-69
2022/07/05 08:56:14;;;;;;;23.17;21.57;;;;;;;;;;5075396;28;20428;-66
2022/07/05 08:58:42;;;;;;;24.47;23.07;;;;;;;;;;5074884;28;20792;-66
2022/07/05 09:01:09;;;;;;;22.77;21.20;;;;;;;;;;5074808;28;20415;-66
2022/07/05 09:03:40;;;;;;;23.20;21.90;;;;;;;;;;5074650;28;20415;-66
2022/07/05 09:06:09;;;;;;;23.07;21.50;;;;;;;;;;5075618;28;20469;-66
2022/07/05 09:08:39;;;;;;;24.87;22.90;;;;;;;;;;5075399;28;20435;-66
2022/07/05 09:11:07;;;;;;;23.37;21.87;;;;;;;;;;5075319;28;20430;-66
2022/07/05 09:13:35;;;;;;;23.80;22.40;;;;;;;;;;5075234;28;20481;-66
2022/07/05 09:16:02;;;;;;;24.23;22.73;;;;;;;;;;5075222;28;20433;-66
2022/07/05 09:18:44;;;;;;;23.83;22.50;;;;;;;;;;5074793;28;20422;-66
2022/07/05 09:21:15;;;;;;;24.30;22.90;;;;;;;;;;5074803;28;20407;-67
2022/07/05 09:23:42;;;;;;;24.70;23.00;;;;;;;;;;5075099;28;20441;-66
2022/07/05 09:26:10;;;;;;;24.10;22.70;;;;;;;;;;5074946;28;20432;-66
2022/07/05 09:28:38;;;;;;;23.33;21.93;;;;;;;;;;5074910;28;20889;-67
2022/07/05 09:31:05;;;;;;;23.30;21.90;;;;;;;;;;5074408;28;20419;-67
2022/07/05 09:33:32;;;;;;;23.73;22.23;;;;;;;;;;5074724;28;20521;-67
2022/07/05 09:36:02;;;;;;;24.53;23.13;;;;;;;;;;5074613;28;20467;-71
2022/07/05 09:38:30;;;;;;;23.63;22.33;;;;;;;;;;5074829;28;20933;-70
2022/07/05 09:40:57;;;;;;;23.67;22.10;;;;;;;;;;5074740;28;20419;-71
2022/07/05 09:43:25;;;;;;;22.83;21.50;;;;;;;;;;5074748;28;20477;-71
2022/07/05 09:45:57;;;;;;;23.83;22.43;;;;;;;;;;5074382;28;20419;-70
2022/07/05 09:48:25;;;;;;;22.77;21.47;;;;;;;;;;5074425;28;20458;-71
2022/07/05 09:50:53;;;;;;;24.70;23.40;;;;;;;;;;5074314;28;20416;-71
2022/07/05 09:53:22;;;;;;;26.13;24.20;;;;;;;;;;5074200;28;20447;-70
2022/07/05 09:56:02;;;;;;;23.23;21.80;;;;;;;;;;5074710;28;20444;-70
2022/07/05 09:58:30;;;;;;;25.43;24.00;;;;;;;;;;5074151;28;20483;-70
2022/07/05 10:00:57;;;;;;;24.70;23.30;;;;;;;;;;5074316;28;20441;-70
2022/07/05 10:03:25;;;;;;;24.37;23.07;;;;;;;;;;5074199;28;20403;-70
2022/07/05 10:05:52;;;;;;;25.53;24.07;;;;;;;;;;5074253;28;20419;-70
2022/07/05 10:08:20;;;;;;;25.60;24.20;;;;;;;;;;5073937;28;20429;-70
2022/07/05 10:10:51;;;;;;;24.10;22.80;;;;;;;;;;5074113;28;20790;-69
2022/07/05 10:13:18;;;;;;;24.27;22.87;;;;;;;;;;5074037;28;20415;-69
2022/07/05 10:15:46;;;;;;;23.97;22.57;;;;;;;;;;5073983;28;20409;-70
2022/07/05 10:18:14;;;;;;;24.00;22.60;;;;;;;;;;5073533;28;20913;-70
2022/07/05 10:20:42;;;;;;;23.80;22.40;;;;;;;;;;5073634;28;20451;-70
2022/07/05 10:23:10;;;;;;;23.17;21.87;;;;;;;;;;5073937;28;20437;-70
2022/07/05 10:25:38;;;;;;;24.17;22.77;;;;;;;;;;5074105;28;20426;-69
2022/07/05 10:28:08;;;;;;;23.33;21.93;;;;;;;;;;5073469;28;20464;-69
2022/07/05 10:30:35;;;;;;;24.20;22.80;;;;;;;;;;5073966;28;20437;-69
2022/07/05 10:33:03;;;;;;;24.20;22.80;;;;;;;;;;5073623;28;20443;-69
2022/07/05 10:35:30;;;;;;;24.00;22.63;;;;;;;;;;5073229;28;20460;-70
2022/07/05 10:37:58;;;;;;;24.57;23.07;;;;;;;;;;5073653;28;20420;-67
2022/07/05 10:40:26;;;;;;;25.63;24.10;;;;;;;;;;5073670;28;20529;-69
2022/07/05 10:42:56;;;;;;;23.13;21.80;;;;;;;;;;5073200;28;20437;-70
2022/07/05 10:45:26;;;;;;;23.13;21.73;;;;;;;;;;5073777;28;20431;-69
2022/07/05 10:48:12;;;;;;;24.30;22.80;;;;;;;;;;5073378;28;20426;-69
2022/07/05 10:50:44;;;;;;;24.90;23.30;;;;;;;;;;5073416;28;20411;-70
2022/07/05 10:53:12;;;;;;;26.00;24.50;;;;;;;;;;5073518;28;20426;-70
2022/07/05 10:55:48;;;;;;;24.97;23.47;;;;;;;;;;5073356;28;20457;-70
2022/07/05 10:58:20;;;;;;;24.07;22.67;;;;;;;;;;5073016;28;20431;-69
2022/07/05 11:00:49;;;;;;;23.50;22.20;;;;;;;;;;5073227;28;20432;-70
2022/07/05 11:03:31;;;;;;;24.20;22.80;;;;;;;;;;5072572;28;20408;-71
2022/07/05 11:05:59;;;;;;;25.43;23.93;;;;;;;;;;5070971;28;20465;-70
2022/07/05 11:08:27;;;;;;;24.07;22.67;;;;;;;;;;5073157;28;20421;-70
2022/07/05 11:11:11;;;;;;;24.20;22.80;;;;;;;;;;5072716;28;20477;-70
2022/07/05 11:13:38;;;;;;;24.63;23.23;;;;;;;;;;5072756;28;22320;-73
2022/07/05 11:16:26;;;;;;;25.53;24.13;;;;;;;;;;5073044;28;20408;-70
2022/07/05 11:18:54;;;;;;;25.70;24.20;;;;;;;;;;5072415;28;20468;-69
2022/07/05 11:21:22;;;;;;;25.43;24.03;;;;;;;;;;5073018;28;20418;-70
2022/07/05 11:23:51;;;;;;;25.43;24.03;;;;;;;;;;5072662;28;20783;-70
2022/07/05 11:26:19;;;;;;;25.70;24.20;;;;;;;;;;5072852;28;20997;-70
2022/07/05 11:28:47;;;;;;;24.17;22.87;;;;;;;;;;5072897;28;20472;-70
2022/07/05 11:31:14;;;;;;;24.33;22.97;;;;;;;;;;5072844;28;20792;-70
2022/07/05 11:33:44;;;;;;;25.50;24.10;;;;;;;;;;5072543;28;20444;-70
2022/07/05 11:36:24;;;;;;;25.97;24.47;;;;;;;;;;5072576;28;20501;-70
2022/07/05 11:39:12;;;;;;;24.20;22.80;;;;;;;;;;5072792;28;20424;-70
2022/07/05 11:41:39;;;;;;;24.67;23.37;;;;;;;;;;5072445;28;20418;-71
2022/07/05 11:44:08;;;;;;;23.50;22.20;;;;;;;;;;5072962;28;20444;-70
2022/07/05 11:46:36;;;;;;;23.87;22.47;;;;;;;;;;5072440;28;20466;-71
2022/07/05 11:49:05;;;;;;;24.50;23.10;;;;;;;;;;5072614;28;20491;-70
2022/07/05 11:51:32;;;;;;;25.00;23.60;;;;;;;;;;5072330;28;20467;-71
2022/07/05 11:54:01;;;;;;;24.60;23.30;;;;;;;;;;5072628;28;20485;-70
2022/07/05 11:56:28;;;;;;;24.00;22.70;;;;;;;;;;5072344;28;20909;-70
2022/07/05 11:58:56;;;;;;;23.17;21.77;;;;;;;;;;5072607;28;20624;-70
2022/07/05 12:01:23;;;;;;;25.00;23.50;;;;;;;;;;5072634;28;20441;-70
2022/07/05 12:03:55;;;;;;;24.33;22.90;;;;;;;;;;5072475;28;20430;-70
2022/07/05 12:06:25;;;;;;;23.87;22.57;;;;;;;;;;5072472;28;20436;-70
2022/07/05 12:09:05;;;;;;;25.10;23.60;;;;;;;;;;5071766;28;20863;-70
2022/07/05 12:14:24;;;;;;;23.90;22.50;;;;;;;;;;5073246;28;20982;-69
2022/07/05 12:16:51;;;;;;;23.90;22.50;;;;;;;;;;5075886;28;20440;-71
2022/07/05 12:19:28;;;;;;;24.60;23.20;;;;;;;;;;5074956;28;20861;-71
2022/07/05 12:21:56;;;;;;;23.73;22.33;;;;;;;;;;5075301;28;20440;-72
2022/07/05 12:24:24;;;;;;;22.80;21.30;;;;;;;;;;5075640;28;20417;-72
2022/07/05 12:26:52;;;;;;;25.10;23.57;;;;;;;;;;5075253;28;20411;-72
2022/07/05 12:29:21;;;;;;;23.30;22.00;;;;;;;;;;5075765;28;20412;-72
2022/07/05 12:32:01;;;;;;;25.83;24.23;;;;;;;;;;5075454;28;20452;-72
2022/07/05 12:34:29;;;;;;;25.00;23.50;;;;;;;;;;5075153;28;20515;-72
2022/07/05 12:36:58;;;;;;;23.73;22.30;;;;;;;;;;5075685;28;20499;-71
2022/07/05 12:39:26;;;;;;;25.50;23.90;;;;;;;;;;5075638;28;20866;-71
2022/07/05 12:41:53;;;;;;;23.50;22.10;;;;;;;;;;5075593;28;20473;-71
2022/07/05 12:44:21;;;;;;;23.17;21.87;;;;;;;;;;5075758;28;20469;-71
2022/07/05 12:46:50;;;;;;;23.77;22.37;;;;;;;;;;5075851;28;20463;-71
2022/07/05 12:49:18;;;;;;;24.13;22.73;;;;;;;;;;5075256;28;20914;-72
2022/07/05 12:51:46;;;;;;;24.47;22.87;;;;;;;;;;5075690;28;20485;-71
2022/07/05 12:59:58;;;;;;;23.50;22.10;;;;;;;;;;5075411;28;20845;-72
2022/07/05 13:02:35;;;;;;;24.07;22.57;;;;;;;;;;5075531;28;20496;-71
2022/07/05 13:05:02;;;;;;;24.73;23.33;;;;;;;;;;5075166;28;20909;-72
2022/07/05 13:07:29;;;;;;;23.73;21.90;;;;;;;;;;5075104;28;20886;-72
2022/07/05 13:10:14;;;;;;;23.00;21.70;;;;;;;;;;5075288;28;20451;-72
2022/07/05 13:12:41;;;;;;;23.33;21.93;;;;;;;;;;5075297;28;20411;-72
2022/07/05 13:15:09;;;;;;;23.40;22.00;;;;;;;;;;5075185;28;20456;-71
2022/07/05 13:17:36;;;;;;;23.67;22.37;;;;;;;;;;5074950;28;20413;-68
2022/07/05 13:20:04;;;;;;;23.90;22.57;;;;;;;;;;5074677;28;20893;-68
2022/07/05 13:22:31;;;;;;;23.37;21.97;;;;;;;;;;5074869;28;20945;-68
2022/07/05 13:25:00;;;;;;;25.87;24.10;;;;;;;;;;5074494;28;20422;-72
2022/07/05 13:27:27;;;;;;;24.10;22.60;;;;;;;;;;5074737;28;20496;-72
2022/07/05 13:29:54;;;;;;;24.37;22.97;;;;;;;;;;5074663;28;20904;-73
2022/07/05 13:32:22;;;;;;;24.43;22.93;;;;;;;;;;5074494;28;20472;-72
2022/07/05 13:34:50;;;;;;;22.70;21.40;;;;;;;;;;5074800;28;20503;-72
2022/07/05 13:37:17;;;;;;;23.57;22.00;;;;;;;;;;5074869;28;20533;-73
2022/07/05 13:39:44;;;;;;;23.37;22.03;;;;;;;;;;5074626;28;20441;-72
2022/07/05 13:42:13;;;;;;;23.00;21.70;;;;;;;;;;5074508;28;20903;-72
2022/07/05 13:44:40;;;;;;;24.63;23.10;;;;;;;;;;5074295;28;20420;-72
2022/07/05 13:47:08;;;;;;;23.77;22.47;;;;;;;;;;5074614;28;20455;-72
2022/07/05 13:49:35;;;;;;;24.03;22.63;;;;;;;;;;5074172;28;20416;-72
2022/07/05 13:52:03;;;;;;;24.37;22.87;;;;;;;;;;5074666;28;20439;-72
2022/07/05 13:54:30;;;;;;;24.07;22.70;;;;;;;;;;5074535;28;20476;-72
2022/07/05 13:56:58;;;;;;;23.47;22.17;;;;;;;;;;5074462;28;20423;-72
2022/07/05 13:59:26;;;;;;;23.80;22.40;;;;;;;;;;5074064;28;20829;-75
2022/07/05 14:01:53;;;;;;;24.47;23.00;;;;;;;;;;5074208;28;20420;-70
2022/07/05 14:04:23;;;;;;;23.93;22.60;;;;;;;;;;5074016;28;20445;-70
2022/07/05 14:06:50;;;;;;;23.10;21.70;;;;;;;;;;5073906;28;20496;-70
2022/07/05 14:09:18;;;;;;;24.50;22.87;;;;;;;;;;5073894;28;20431;-70
2022/07/05 14:11:46;;;;;;;24.17;22.77;;;;;;;;;;5074201;28;20410;-70
2022/07/05 14:14:13;;;;;;;24.60;23.10;;;;;;;;;;5074131;28;20411;-71
2022/07/05 14:16:42;;;;;;;24.40;23.00;;;;;;;;;;5073763;28;20456;-70
2022/07/05 14:19:09;;;;;;;24.70;23.30;;;;;;;;;;5073276;28;20485;-70
2022/07/05 14:21:36;;;;;;;25.83;24.17;;;;;;;;;;5073702;28;20441;-70
2022/07/05 14:24:04;;;;;;;24.60;23.20;;;;;;;;;;5073582;28;20942;-70
2022/07/05 14:26:32;;;;;;;24.80;23.30;;;;;;;;;;5073542;28;20514;-71
2022/07/05 14:28:59;;;;;;;24.80;23.30;;;;;;;;;;5073862;28;20526;-70
2022/07/05 14:31:30;;;;;;;24.13;22.60;;;;;;;;;;5073826;28;20444;-70
2022/07/05 14:33:59;;;;;;;24.07;22.67;;;;;;;;;;5073597;28;20514;-73
2022/07/05 14:36:26;;;;;;;26.07;24.33;;;;;;;;;;5073157;28;20832;-72